Terminal Aerodrome Forecast
Issued by NWS Lake Charles, LA

Home | Current Version | Previous Version | Text Only | Print | Product List | Glossary On
Versions: 1 2 3 4 5 6 7 8 9 10 11 12 13 14 15
000
FTUS44 KLCH 291120
TAFLFT
TAF
KLFT 291120Z 2912/3012 14005KT P6SM -SHRA SCT010 OVC025
     FM291500 20010KT P6SM VCTS BKN025CB
     FM291800 21012KT P6SM VCTS BKN035CB
     FM300000 19008KT P6SM BKN100=

USA.gov is the U.S. government's official web portal to all federal, state and local government web resources and services.